Time;durP1;ratioP1;P1;durP2;ratioP2;P2;SDS_P1;SDS_P2;PMS_P1;PMS_P2;Temp;Humidity;BMP_temperature;BMP_pressure;BME280_temperature;BME280_humidity;BME280_pressure;Samples;Min_cycle;Max_cycle;Signal;HPM_P1;HPM_P2
2024/04/09 00:01:32;;;;;;;1.60;0.93;;;16.90;93.80;;;;;;5443057;26;20641;-73
2024/04/09 00:03:58;;;;;;;0.30;0.20;;;16.90;93.90;;;;;;5443697;26;20231;-73
2024/04/09 00:06:25;;;;;;;0.30;0.20;;;16.80;94.00;;;;;;5442992;26;20239;-74
2024/04/09 00:08:53;;;;;;;0.30;0.30;;;16.80;94.10;;;;;;5443806;26;20269;-74
2024/04/09 00:11:22;;;;;;;0.30;0.20;;;16.80;94.10;;;;;;5443266;26;20466;-74
2024/04/09 00:13:58;;;;;;;0.40;0.40;;;16.70;94.20;;;;;;5443466;26;20467;-73
2024/04/09 00:16:25;;;;;;;0.30;0.30;;;16.70;94.30;;;;;;5443186;26;20499;-74
2024/04/09 00:18:54;;;;;;;0.30;0.30;;;16.70;94.30;;;;;;5443491;26;20451;-73
2024/04/09 00:21:21;;;;;;;0.40;0.40;;;16.60;94.40;;;;;;5443185;26;20503;-74
2024/04/09 00:23:47;;;;;;;1.73;1.07;;;16.60;94.50;;;;;;5443190;26;20467;-74
2024/04/09 00:26:13;;;;;;;0.30;0.20;;;16.50;94.70;;;;;;5443314;26;20804;-73
2024/04/09 00:28:39;;;;;;;0.30;0.20;;;16.50;95.00;;;;;;5441274;26;20580;-73
2024/04/09 00:31:05;;;;;;;0.37;0.30;;;16.50;94.80;;;;;;5441328;26;21015;-73
2024/04/09 00:33:30;;;;;;;0.30;0.20;;;16.50;94.90;;;;;;5443024;26;20289;-73
2024/04/09 00:35:56;;;;;;;0.30;0.20;;;16.40;95.00;;;;;;5441658;26;20715;-73
2024/04/09 00:38:23;;;;;;;0.30;0.20;;;16.30;95.40;;;;;;5443313;26;20230;-73
2024/04/09 00:40:49;;;;;;;0.30;0.20;;;16.30;95.20;;;;;;5443290;26;20484;-73
2024/04/09 00:43:15;;;;;;;0.60;0.60;;;16.30;95.30;;;;;;5441008;26;20517;-73
2024/04/09 00:45:43;;;;;;;0.30;0.20;;;16.20;95.30;;;;;;5441405;26;20933;-74
2024/04/09 00:48:11;;;;;;;0.40;0.40;;;16.20;95.40;;;;;;5441116;26;20510;-73
2024/04/09 00:50:41;;;;;;;0.30;0.30;;;16.10;95.50;;;;;;5443040;26;20478;-73
2024/04/09 00:53:11;;;;;;;0.30;0.20;;;16.10;95.70;;;;;;5442549;26;21008;-74
2024/04/09 00:55:42;;;;;;;1.33;1.33;;;16.00;95.90;;;;;;5442031;26;20432;-73
2024/04/09 00:58:11;;;;;;;0.30;0.20;;;15.90;96.00;;;;;;5440962;26;20914;-73
2024/04/09 01:00:40;;;;;;;4.37;2.37;;;15.90;96.10;;;;;;5442675;26;20451;-74
2024/04/09 01:03:14;;;;;;;0.60;0.60;;;15.90;96.20;;;;;;5440953;26;20460;-73
2024/04/09 01:05:41;;;;;;;0.50;0.50;;;15.90;96.20;;;;;;5442829;26;20489;-74
2024/04/09 01:08:06;;;;;;;0.50;0.50;;;15.90;96.30;;;;;;5442386;26;20456;-73
2024/04/09 01:10:32;;;;;;;0.40;0.40;;;15.90;96.30;;;;;;5442396;26;20487;-74
2024/04/09 01:12:59;;;;;;;0.30;0.20;;;15.90;96.40;;;;;;5440436;26;20276;-73
2024/04/09 01:15:24;;;;;;;2.87;2.63;;;15.90;96.40;;;;;;5442385;26;20503;-73
2024/04/09 01:17:50;;;;;;;0.77;0.77;;;15.90;96.50;;;;;;5440602;26;20464;-73
2024/04/09 01:20:16;;;;;;;0.30;0.20;;;15.90;96.60;;;;;;5440800;26;20226;-74
2024/04/09 01:22:43;;;;;;;0.30;0.20;;;15.80;96.70;;;;;;5442038;26;20524;-73
2024/04/09 01:25:10;;;;;;;6.20;0.87;;;15.90;96.80;;;;;;5442893;26;20314;-74
2024/04/09 01:27:42;;;;;;;0.30;0.20;;;15.90;96.90;;;;;;5440238;26;20519;-73
2024/04/09 01:30:09;;;;;;;0.40;0.40;;;15.90;96.90;;;;;;5441136;26;20911;-74
2024/04/09 01:32:36;;;;;;;0.30;0.20;;;15.80;97.00;;;;;;5442184;26;20509;-74
2024/04/09 01:35:08;;;;;;;0.30;0.20;;;15.80;97.10;;;;;;5440688;26;20867;-74
2024/04/09 01:37:36;;;;;;;0.30;0.20;;;15.80;97.10;;;;;;5440458;26;20475;-73
2024/04/09 01:40:03;;;;;;;0.30;0.20;;;15.80;97.30;;;;;;5442652;26;20423;-74
2024/04/09 01:42:29;;;;;;;0.73;0.73;;;15.80;97.40;;;;;;5441863;26;21230;-74
2024/04/09 01:44:54;;;;;;;0.30;0.20;;;15.80;97.30;;;;;;5440541;26;20496;-74
2024/04/09 01:47:21;;;;;;;0.30;0.20;;;15.70;97.50;;;;;;5441834;26;20386;-73
2024/04/09 01:49:47;;;;;;;0.30;0.30;;;15.70;97.60;;;;;;5440276;26;20354;-73
2024/04/09 01:52:13;;;;;;;0.50;0.50;;;15.70;97.60;;;;;;5439739;26;21157;-73
2024/04/09 01:54:43;;;;;;;0.30;0.30;;;15.80;97.80;;;;;;5441599;26;20490;-73
2024/04/09 01:57:09;;;;;;;0.43;0.40;;;15.80;97.80;;;;;;5440214;26;20226;-73
2024/04/09 01:59:35;;;;;;;0.33;0.30;;;15.80;97.80;;;;;;5442009;26;20774;-73
2024/04/09 02:02:01;;;;;;;1.10;1.00;;;15.80;97.90;;;;;;5441387;26;20225;-73
2024/04/09 02:04:27;;;;;;;0.40;0.30;;;15.80;97.90;;;;;;5439921;26;21049;-74
2024/04/09 02:06:52;;;;;;;0.30;0.20;;;15.80;97.90;;;;;;5441418;26;20355;-73
2024/04/09 02:09:18;;;;;;;0.50;0.50;;;15.80;98.00;;;;;;5441544;26;20459;-73
2024/04/09 02:11:44;;;;;;;0.30;0.20;;;15.70;98.00;;;;;;5441014;26;20229;-73
2024/04/09 02:14:10;;;;;;;0.63;0.63;;;15.70;98.00;;;;;;5440269;26;20241;-74
2024/04/09 02:16:36;;;;;;;0.63;0.63;;;15.70;98.20;;;;;;5441250;26;20493;-73
2024/04/09 02:19:03;;;;;;;0.30;0.20;;;15.60;98.30;;;;;;5439666;26;20490;-74
2024/04/09 02:21:31;;;;;;;0.30;0.20;;;15.70;98.30;;;;;;5439287;26;20508;-73
2024/04/09 02:23:57;;;;;;;0.30;0.20;;;15.60;98.30;;;;;;5441497;26;20991;-74
2024/04/09 02:26:24;;;;;;;0.30;0.20;;;15.60;98.40;;;;;;5439416;26;20495;-73
2024/04/09 02:28:50;;;;;;;0.30;0.20;;;15.50;98.50;;;;;;5441227;26;20785;-73
2024/04/09 02:31:16;;;;;;;0.87;0.87;;;15.50;98.70;;;;;;5441350;26;20491;-73
2024/04/09 02:33:42;;;;;;;0.30;0.20;;;15.50;98.80;;;;;;5439809;26;20546;-74
2024/04/09 02:36:11;;;;;;;1.00;1.00;;;15.40;98.90;;;;;;5441343;26;20487;-74
2024/04/09 02:38:37;;;;;;;0.30;0.20;;;15.30;99.00;;;;;;5441206;26;20459;-73
2024/04/09 02:41:04;;;;;;;0.30;0.20;;;15.30;99.20;;;;;;5441562;26;21033;-73
2024/04/09 02:43:30;;;;;;;0.30;0.20;;;15.30;99.40;;;;;;5440909;26;20573;-73
2024/04/09 02:45:56;;;;;;;0.30;0.20;;;15.30;99.60;;;;;;5439523;26;20678;-73
2024/04/09 02:48:21;;;;;;;0.40;0.33;;;15.30;99.70;;;;;;5440967;26;20448;-73
2024/04/09 02:50:58;;;;;;;0.30;0.27;;;15.20;99.70;;;;;;5440587;26;20935;-73
2024/04/09 02:53:24;;;;;;;0.30;0.20;;;15.30;99.90;;;;;;5440888;26;20288;-74
2024/04/09 02:56:03;;;;;;;0.43;0.43;;;15.30;99.90;;;;;;5439041;26;20443;-74
2024/04/09 02:58:30;;;;;;;0.30;0.20;;;15.40;99.80;;;;;;5438931;26;20506;-74
2024/04/09 03:00:56;;;;;;;0.30;0.20;;;15.50;99.80;;;;;;5441060;26;20432;-74
2024/04/09 03:03:22;;;;;;;0.30;0.20;;;15.60;99.80;;;;;;5440667;26;21048;-73
2024/04/09 03:05:48;;;;;;;0.30;0.20;;;15.60;99.70;;;;;;5440846;26;20443;-73
2024/04/09 03:08:13;;;;;;;0.30;0.20;;;15.70;99.50;;;;;;5440964;26;20507;-73
2024/04/09 03:10:39;;;;;;;0.30;0.30;;;15.70;99.40;;;;;;5441055;26;20556;-74
2024/04/09 03:13:05;;;;;;;1.37;1.27;;;15.80;99.30;;;;;;5440733;26;20330;-73
2024/04/09 03:15:31;;;;;;;1.23;1.23;;;15.80;99.30;;;;;;5441135;26;20308;-73
2024/04/09 03:17:57;;;;;;;0.30;0.30;;;15.80;99.30;;;;;;5440979;26;20285;-74
2024/04/09 03:20:23;;;;;;;0.53;0.53;;;15.80;99.30;;;;;;5439811;26;20435;-74
2024/04/09 03:22:48;;;;;;;0.30;0.20;;;15.90;99.30;;;;;;5440007;26;20467;-74
2024/04/09 03:25:15;;;;;;;0.50;0.50;;;15.90;99.30;;;;;;5440942;26;20670;-73
2024/04/09 03:27:41;;;;;;;0.30;0.20;;;15.90;99.30;;;;;;5438312;26;20234;-74
2024/04/09 03:30:09;;;;;;;0.30;0.20;;;15.80;99.40;;;;;;5440546;26;20435;-73
2024/04/09 03:32:35;;;;;;;0.30;0.20;;;15.70;99.50;;;;;;5440242;26;20511;-74
2024/04/09 03:35:00;;;;;;;1.00;1.00;;;15.70;99.70;;;;;;5440414;26;21044;-74
2024/04/09 03:37:26;;;;;;;0.30;0.30;;;15.60;99.70;;;;;;5438186;26;20467;-73
2024/04/09 03:39:52;;;;;;;0.30;0.20;;;15.60;99.80;;;;;;5440420;26;20632;-73
2024/04/09 03:42:17;;;;;;;0.30;0.20;;;15.50;99.90;;;;;;5439904;26;20612;-73
2024/04/09 03:44:43;;;;;;;0.50;0.50;;;15.40;99.90;;;;;;5440036;26;20894;-73
2024/04/09 03:47:09;;;;;;;0.30;0.30;;;15.40;99.90;;;;;;5439556;26;20229;-73
2024/04/09 03:49:35;;;;;;;8.27;2.27;;;15.30;99.90;;;;;;5439389;26;20222;-74
2024/04/09 03:52:01;;;;;;;0.30;0.20;;;15.30;99.90;;;;;;5439634;26;20788;-73
2024/04/09 03:54:27;;;;;;;0.30;0.20;;;15.30;99.90;;;;;;5438047;26;21066;-74
2024/04/09 03:56:54;;;;;;;0.30;0.20;;;15.20;99.90;;;;;;5437741;26;20842;-74
2024/04/09 03:59:19;;;;;;;0.60;0.60;;;15.20;99.90;;;;;;5438063;26;20837;-74
2024/04/09 04:01:45;;;;;;;1.67;1.13;;;15.20;99.90;;;;;;5437737;26;20487;-74
2024/04/09 04:04:13;;;;;;;0.30;0.20;;;15.20;99.90;;;;;;5438157;26;20749;-74
2024/04/09 04:06:39;;;;;;;0.60;0.60;;;15.20;99.90;;;;;;5438391;26;20467;-74
2024/04/09 04:09:05;;;;;;;0.30;0.30;;;15.20;99.90;;;;;;5439040;26;20511;-73
2024/04/09 04:11:31;;;;;;;0.50;0.40;;;15.20;99.90;;;;;;5434245;26;20463;-74
2024/04/09 04:13:57;;;;;;;0.40;0.30;;;15.20;99.90;;;;;;5439011;26;20306;-73
2024/04/09 04:16:23;;;;;;;0.30;0.20;;;15.30;99.90;;;;;;5439077;26;20491;-74
2024/04/09 04:18:50;;;;;;;0.30;0.20;;;15.30;99.90;;;;;;5438337;26;20900;-74
2024/04/09 04:21:17;;;;;;;0.30;0.20;;;15.30;99.90;;;;;;5438554;26;20229;-74
2024/04/09 04:23:43;;;;;;;0.43;0.43;;;15.30;99.90;;;;;;5437933;26;21033;-73
2024/04/09 04:26:11;;;;;;;0.67;0.67;;;15.30;99.90;;;;;;5438444;26;20444;-73
2024/04/09 04:28:43;;;;;;;0.30;0.30;;;15.30;99.90;;;;;;5438928;26;20456;-73
2024/04/09 04:31:14;;;;;;;0.30;0.30;;;15.30;99.90;;;;;;5439752;26;20495;-73
2024/04/09 04:33:40;;;;;;;0.30;0.30;;;15.30;99.90;;;;;;5442579;26;20455;-73
2024/04/09 04:36:07;;;;;;;0.30;0.20;;;15.30;99.90;;;;;;5441257;26;20455;-73
2024/04/09 04:38:33;;;;;;;0.30;0.20;;;15.30;99.90;;;;;;5442740;26;20455;-73
2024/04/09 04:41:00;;;;;;;0.30;0.20;;;15.30;99.90;;;;;;5440826;26;21294;-74
2024/04/09 04:43:26;;;;;;;0.30;0.20;;;15.30;99.90;;;;;;5442217;26;20519;-76
2024/04/09 04:45:51;;;;;;;0.50;0.50;;;15.30;99.90;;;;;;5441774;26;20447;-72
2024/04/09 04:48:20;;;;;;;0.40;0.40;;;15.30;99.90;;;;;;5441914;26;21039;-76
2024/04/09 04:50:46;;;;;;;0.30;0.20;;;15.30;99.90;;;;;;5441918;26;20756;-75
2024/04/09 04:53:12;;;;;;;0.40;0.40;;;15.30;99.90;;;;;;5440336;26;20584;-75
2024/04/09 04:55:38;;;;;;;0.30;0.30;;;15.30;99.90;;;;;;5437922;26;20455;-75
2024/04/09 04:58:04;;;;;;;0.30;0.30;;;15.40;99.90;;;;;;5441358;26;21060;-75
2024/04/09 05:00:31;;;;;;;0.43;0.43;;;15.40;99.90;;;;;;5442069;26;20833;-76
2024/04/09 05:02:57;;;;;;;1.13;0.77;;;15.50;99.90;;;;;;5442740;26;20857;-73
2024/04/09 05:05:23;;;;;;;1.13;0.90;;;15.50;99.90;;;;;;5440936;26;20509;-74
2024/04/09 05:07:49;;;;;;;0.40;0.40;;;15.60;99.90;;;;;;5438024;26;20544;-74
2024/04/09 05:10:19;;;;;;;0.30;0.30;;;15.70;99.90;;;;;;5440903;26;20576;-73
2024/04/09 05:12:47;;;;;;;0.30;0.20;;;15.80;99.90;;;;;;5440584;26;20588;-74
2024/04/09 05:15:13;;;;;;;0.30;0.20;;;15.90;99.90;;;;;;5441432;26;20905;-74
2024/04/09 05:17:39;;;;;;;0.30;0.20;;;15.90;99.90;;;;;;5435601;26;20464;-73
2024/04/09 05:20:12;;;;;;;0.30;0.20;;;16.00;99.90;;;;;;5439658;26;21123;-73
2024/04/09 05:22:48;;;;;;;0.30;0.30;;;16.00;99.90;;;;;;5439797;26;20448;-74
2024/04/09 05:25:15;;;;;;;0.30;0.20;;;16.00;99.90;;;;;;5438984;26;20459;-74
2024/04/09 05:27:41;;;;;;;1.03;0.90;;;16.00;99.90;;;;;;5423731;26;21023;-73
2024/04/09 05:30:12;;;;;;;0.30;0.20;;;16.10;99.90;;;;;;5406216;26;20457;-73
2024/04/09 05:32:39;;;;;;;0.77;0.40;;;16.10;99.90;;;;;;5401389;26;20850;-74
2024/04/09 05:35:06;;;;;;;0.30;0.20;;;16.20;99.90;;;;;;5412264;26;20942;-74
2024/04/09 05:37:32;;;;;;;0.60;0.50;;;16.20;99.90;;;;;;5436109;26;20572;-74
2024/04/09 05:39:58;;;;;;;0.30;0.20;;;16.30;99.90;;;;;;5435522;26;20944;-74
2024/04/09 05:42:24;;;;;;;0.30;0.30;;;16.30;99.90;;;;;;5427762;26;20666;-73
2024/04/09 05:44:50;;;;;;;0.30;0.20;;;16.30;99.90;;;;;;5433307;26;20256;-74
2024/04/09 05:47:17;;;;;;;0.30;0.20;;;16.40;99.90;;;;;;5425230;26;20552;-73
2024/04/09 05:49:44;;;;;;;0.77;0.50;;;16.50;99.90;;;;;;5418062;26;20257;-74
2024/04/09 05:52:09;;;;;;;1.03;1.03;;;16.50;99.90;;;;;;5419339;26;20506;-73
2024/04/09 05:54:44;;;;;;;2.10;0.87;;;16.60;99.90;;;;;;5405310;26;20899;-74
2024/04/09 05:57:10;;;;;;;0.30;0.30;;;16.70;99.90;;;;;;5435119;26;20229;-74
2024/04/09 05:59:36;;;;;;;0.50;0.50;;;16.80;99.90;;;;;;5434290;26;20877;-76
2024/04/09 06:02:03;;;;;;;0.30;0.20;;;16.80;99.90;;;;;;5431810;26;20566;-74
2024/04/09 06:04:29;;;;;;;0.30;0.20;;;16.80;99.90;;;;;;5430351;26;20846;-74
2024/04/09 06:06:55;;;;;;;0.30;0.20;;;16.90;99.90;;;;;;5429693;26;20595;-75
2024/04/09 06:09:21;;;;;;;0.30;0.20;;;17.00;99.90;;;;;;5430460;26;20868;-73
2024/04/09 06:11:47;;;;;;;0.50;0.50;;;17.00;99.90;;;;;;5428093;26;20234;-74
2024/04/09 06:14:12;;;;;;;0.40;0.30;;;17.10;99.90;;;;;;5429445;26;20487;-74
2024/04/09 06:16:38;;;;;;;0.93;0.90;;;17.10;99.90;;;;;;5429804;26;20378;-74
2024/04/09 06:19:04;;;;;;;0.53;0.53;;;17.20;99.90;;;;;;5430176;26;20679;-74
2024/04/09 06:21:30;;;;;;;0.30;0.20;;;17.30;99.90;;;;;;5412785;26;20449;-74
2024/04/09 06:23:56;;;;;;;0.63;0.63;;;17.40;99.90;;;;;;5433428;26;20797;-74
2024/04/09 06:26:22;;;;;;;0.30;0.20;;;17.40;99.90;;;;;;5434711;26;20233;-74
2024/04/09 06:28:47;;;;;;;0.30;0.20;;;17.50;99.90;;;;;;5405146;26;20235;-74
2024/04/09 06:31:13;;;;;;;0.30;0.20;;;17.50;99.90;;;;;;5400182;26;20265;-73
2024/04/09 06:33:40;;;;;;;0.30;0.20;;;17.60;99.90;;;;;;5401838;26;20355;-74
2024/04/09 06:36:06;;;;;;;0.30;0.20;;;17.60;99.90;;;;;;5434696;26;20250;-74
2024/04/09 06:38:32;;;;;;;0.30;0.20;;;17.70;99.90;;;;;;5436899;26;20472;-74
2024/04/09 06:40:58;;;;;;;0.30;0.20;;;17.70;99.00;;;;;;5433496;26;20274;-73
2024/04/09 06:43:23;;;;;;;0.30;0.30;;;17.80;99.20;;;;;;5432668;26;20455;-74
2024/04/09 06:45:49;;;;;;;0.30;0.30;;;17.90;98.90;;;;;;5433699;26;20312;-74
2024/04/09 06:48:15;;;;;;;0.83;0.83;;;18.00;98.80;;;;;;5432446;26;20631;-74
2024/04/09 06:50:41;;;;;;;0.30;0.20;;;18.00;98.40;;;;;;5434163;26;20243;-74
2024/04/09 06:53:07;;;;;;;0.40;0.40;;;18.10;98.50;;;;;;5437045;26;21029;-74
2024/04/09 06:55:33;;;;;;;0.30;0.20;;;18.10;97.90;;;;;;5433286;26;20802;-73
2024/04/09 06:57:59;;;;;;;0.70;0.70;;;18.10;98.10;;;;;;5435321;26;20243;-74
2024/04/09 07:00:24;;;;;;;0.30;0.30;;;18.20;98.10;;;;;;5431693;26;20263;-73
2024/04/09 07:02:52;;;;;;;0.83;0.83;;;18.30;98.10;;;;;;5432446;26;20361;-74
2024/04/09 07:05:18;;;;;;;0.33;0.30;;;18.40;98.30;;;;;;5421159;26;20231;-73
2024/04/09 07:07:44;;;;;;;0.30;0.20;;;18.40;98.10;;;;;;5432652;26;20481;-74
2024/04/09 07:10:11;;;;;;;0.30;0.20;;;18.50;98.10;;;;;;5434568;26;20555;-73
2024/04/09 07:12:36;;;;;;;0.40;0.30;;;18.60;97.90;;;;;;5433207;26;20255;-74
2024/04/09 07:15:03;;;;;;;0.67;0.50;;;18.70;97.90;;;;;;5428334;26;20832;-74
2024/04/09 07:17:29;;;;;;;0.30;0.30;;;18.80;97.90;;;;;;5434084;26;20251;-74
2024/04/09 07:19:58;;;;;;;0.40;0.40;;;18.90;97.60;;;;;;5435171;26;20450;-74
2024/04/09 07:22:24;;;;;;;0.30;0.20;;;18.90;97.70;;;;;;5434951;26;20819;-75
2024/04/09 07:24:49;;;;;;;0.30;0.20;;;19.00;97.70;;;;;;5433572;26;21151;-74
2024/04/09 07:27:15;;;;;;;0.43;0.43;;;19.10;97.40;;;;;;5430576;26;20454;-74
2024/04/09 07:29:41;;;;;;;0.30;0.20;;;19.20;97.40;;;;;;5432332;26;20755;-74
2024/04/09 07:32:07;;;;;;;2.87;1.23;;;19.30;97.30;;;;;;5427785;26;20567;-74
2024/04/09 07:34:36;;;;;;;0.40;0.30;;;19.50;97.10;;;;;;5428206;26;20292;-75
2024/04/09 07:37:02;;;;;;;1.07;1.03;;;19.60;96.80;;;;;;5432870;26;20515;-74
2024/04/09 07:39:28;;;;;;;0.53;0.40;;;19.70;97.20;;;;;;5433288;26;20492;-74
2024/04/09 07:41:54;;;;;;;0.67;0.67;;;19.80;96.80;;;;;;5435517;26;20478;-74
2024/04/09 07:44:20;;;;;;;0.83;0.83;;;19.90;96.80;;;;;;5435337;26;20504;-74
2024/04/09 07:46:48;;;;;;;0.40;0.40;;;20.00;96.40;;;;;;5431518;26;20233;-73
2024/04/09 07:49:17;;;;;;;0.30;0.20;;;20.10;96.10;;;;;;5431965;26;20232;-74
2024/04/09 07:51:43;;;;;;;1.90;0.70;;;20.20;96.00;;;;;;5429332;26;20579;-74
2024/04/09 07:54:12;;;;;;;0.40;0.40;;;20.20;95.80;;;;;;5425468;26;20830;-74
2024/04/09 07:56:38;;;;;;;1.10;1.03;;;20.30;95.30;;;;;;5412515;26;20581;-74
2024/04/09 07:59:04;;;;;;;0.50;0.50;;;20.30;95.80;;;;;;5427850;26;20803;-74
2024/04/09 08:01:30;;;;;;;0.50;0.50;;;20.40;95.40;;;;;;5432162;26;20594;-74
2024/04/09 08:03:56;;;;;;;0.50;0.40;;;20.50;95.40;;;;;;5419466;26;20459;-74
2024/04/09 08:06:24;;;;;;;0.30;0.20;;;20.50;95.30;;;;;;5430238;26;20629;-74
2024/04/09 08:08:51;;;;;;;0.70;0.70;;;20.60;94.80;;;;;;5435928;26;20980;-74
2024/04/09 08:11:16;;;;;;;0.30;0.30;;;20.60;95.10;;;;;;5439764;26;21240;-74
2024/04/09 08:13:42;;;;;;;0.30;0.20;;;20.70;94.90;;;;;;5422919;26;20521;-74
2024/04/09 08:16:08;;;;;;;0.30;0.30;;;20.90;94.60;;;;;;5435227;26;20269;-74
2024/04/09 08:18:34;;;;;;;0.40;0.30;;;20.90;94.70;;;;;;5427056;26;20231;-74
2024/04/09 08:21:00;;;;;;;0.30;0.30;;;21.00;94.60;;;;;;5428657;26;20238;-74
2024/04/09 08:23:26;;;;;;;0.30;0.20;;;21.20;94.20;;;;;;5432253;26;21196;-74
2024/04/09 08:25:52;;;;;;;0.30;0.20;;;21.30;94.30;;;;;;5431654;26;20866;-74
2024/04/09 08:28:21;;;;;;;0.67;0.63;;;21.40;94.10;;;;;;5433336;26;20539;-74
2024/04/09 08:30:48;;;;;;;0.30;0.23;;;21.50;94.00;;;;;;5432074;26;20214;-74
2024/04/09 08:33:14;;;;;;;0.30;0.20;;;21.60;93.90;;;;;;5430787;26;20569;-75
2024/04/09 08:35:45;;;;;;;0.47;0.47;;;21.70;93.70;;;;;;5427114;26;20894;-74
2024/04/09 08:38:12;;;;;;;0.30;0.20;;;21.80;93.50;;;;;;5424221;26;20523;-74
2024/04/09 08:40:38;;;;;;;0.30;0.20;;;22.00;93.20;;;;;;5431304;26;21005;-75
2024/04/09 08:43:04;;;;;;;0.53;0.47;;;22.10;93.10;;;;;;5428942;26;20464;-75
2024/04/09 08:45:31;;;;;;;0.80;0.60;;;22.30;92.80;;;;;;5427577;26;21182;-74
2024/04/09 08:48:02;;;;;;;10.17;1.07;;;22.50;92.60;;;;;;5428039;26;20283;-74
2024/04/09 08:50:27;;;;;;;0.30;0.20;;;22.70;92.50;;;;;;5429072;26;20506;-74
2024/04/09 08:52:54;;;;;;;0.40;0.40;;;22.90;92.30;;;;;;5431616;26;20808;-74
2024/04/09 08:55:21;;;;;;;0.50;0.50;;;23.00;91.90;;;;;;5425864;26;20228;-74
2024/04/09 08:57:48;;;;;;;0.30;0.30;;;23.00;92.00;;;;;;5429461;26;20510;-73
2024/04/09 09:00:16;;;;;;;1.57;0.70;;;23.00;91.80;;;;;;5431786;26;20485;-74
2024/04/09 09:02:43;;;;;;;0.30;0.20;;;23.10;92.00;;;;;;5435261;26;20474;-75
2024/04/09 09:05:18;;;;;;;0.30;0.20;;;23.20;92.00;;;;;;5433111;26;20580;-75
2024/04/09 09:07:44;;;;;;;0.50;0.50;;;23.20;91.30;;;;;;5431926;26;20610;-75
2024/04/09 09:10:11;;;;;;;0.30;0.20;;;23.30;91.70;;;;;;5430085;26;20467;-75
2024/04/09 09:12:37;;;;;;;0.30;0.20;;;23.30;91.70;;;;;;5432469;26;20709;-75
2024/04/09 09:15:03;;;;;;;0.40;0.37;;;23.40;91.50;;;;;;5427306;26;20580;-74
2024/04/09 09:17:31;;;;;;;0.40;0.40;;;23.50;91.40;;;;;;5430763;26;20244;-75
2024/04/09 09:20:09;;;;;;;0.60;0.60;;;23.70;91.10;;;;;;5432305;26;20459;-75
2024/04/09 09:22:43;;;;;;;0.30;0.27;;;23.80;91.00;;;;;;5432378;26;20746;-76
2024/04/09 09:25:16;;;;;;;0.43;0.43;;;23.80;91.10;;;;;;5428146;26;20444;-75
2024/04/09 09:27:43;;;;;;;1.37;1.27;;;23.90;90.60;;;;;;5428785;26;20909;-74
2024/04/09 09:30:10;;;;;;;0.30;0.20;;;24.00;90.60;;;;;;5437019;26;20969;-75
2024/04/09 09:32:40;;;;;;;0.30;0.20;;;24.20;90.60;;;;;;5438426;26;20518;-75
2024/04/09 09:35:17;;;;;;;0.30;0.20;;;24.30;90.70;;;;;;5433786;26;20443;-75
2024/04/09 09:37:45;;;;;;;0.30;0.20;;;24.40;90.80;;;;;;5432543;26;20798;-74
2024/04/09 09:40:11;;;;;;;0.70;0.70;;;24.50;90.50;;;;;;5432733;26;20440;-75
2024/04/09 09:42:38;;;;;;;0.30;0.20;;;24.60;90.30;;;;;;5430497;26;20483;-75
2024/04/09 09:45:06;;;;;;;0.30;0.20;;;24.60;90.30;;;;;;5429446;26;20499;-75
2024/04/09 09:47:36;;;;;;;0.30;0.20;;;24.60;89.90;;;;;;5428550;26;21102;-75
2024/04/09 09:50:08;;;;;;;0.30;0.20;;;24.50;90.30;;;;;;5433255;26;20498;-74
2024/04/09 09:52:34;;;;;;;0.30;0.20;;;24.50;90.10;;;;;;5431662;26;20479;-75
2024/04/09 09:54:59;;;;;;;0.30;0.30;;;24.60;90.30;;;;;;5428144;26;20463;-75
2024/04/09 09:57:26;;;;;;;0.63;0.50;;;24.70;90.60;;;;;;5409180;26;20509;-74
2024/04/09 09:59:59;;;;;;;1.70;0.80;;;24.70;89.80;;;;;;5392451;26;20227;-75
2024/04/09 10:02:29;;;;;;;2.63;2.43;;;24.80;89.60;;;;;;5408104;26;20625;-75
2024/04/09 10:04:55;;;;;;;0.50;0.50;;;24.90;90.10;;;;;;5429183;26;20519;-74
2024/04/09 10:07:22;;;;;;;0.30;0.20;;;25.00;89.60;;;;;;5401266;26;20464;-74
2024/04/09 10:09:52;;;;;;;0.30;0.30;;;24.90;89.30;;;;;;5413540;26;20567;-74
2024/04/09 10:12:28;;;;;;;0.30;0.30;;;25.00;90.00;;;;;;5433567;26;20512;-74
2024/04/09 10:15:05;;;;;;;0.30;0.20;;;25.00;90.00;;;;;;5431817;26;20443;-74
2024/04/09 10:17:50;;;;;;;0.30;0.30;;;25.00;90.10;;;;;;5427482;26;21071;-74
2024/04/09 10:20:30;;;;;;;0.30;0.20;;;25.20;89.80;;;;;;5420787;26;20444;-75
2024/04/09 10:22:57;;;;;;;0.30;0.20;;;25.20;89.70;;;;;;5431377;26;20516;-74
2024/04/09 10:25:24;;;;;;;0.30;0.20;;;25.30;88.90;;;;;;5433476;26;20555;-75
2024/04/09 10:28:24;;;;;;;0.30;0.20;;;25.30;88.50;;;;;;5434064;26;20564;-74
2024/04/09 10:30:52;;;;;;;0.60;0.60;;;25.20;89.10;;;;;;5405927;26;20511;-74
2024/04/09 10:33:36;;;;;;;0.30;0.20;;;25.10;89.10;;;;;;5425503;26;20506;-74
2024/04/09 10:36:11;;;;;;;0.33;0.33;;;25.20;89.00;;;;;;5433499;26;20474;-74
2024/04/09 10:38:38;;;;;;;0.30;0.30;;;25.30;89.30;;;;;;5431601;26;20455;-74
2024/04/09 10:41:04;;;;;;;0.30;0.20;;;25.30;89.30;;;;;;5430942;26;20478;-74
2024/04/09 10:43:30;;;;;;;0.30;0.30;;;25.30;89.40;;;;;;5433256;26;20455;-74
2024/04/09 10:45:57;;;;;;;0.57;0.57;;;25.40;88.80;;;;;;5434972;26;21237;-74
2024/04/09 10:48:23;;;;;;;0.30;0.20;;;25.50;88.70;;;;;;5430083;26;21119;-74
2024/04/09 10:50:52;;;;;;;0.70;0.70;;;25.60;88.80;;;;;;5429731;26;20514;-74
2024/04/09 10:53:18;;;;;;;0.30;0.20;;;25.60;88.50;;;;;;5416696;26;20876;-74
2024/04/09 10:55:44;;;;;;;3.03;1.23;;;25.70;88.50;;;;;;5430761;26;21052;-74
2024/04/09 10:58:17;;;;;;;0.40;0.30;;;25.70;88.60;;;;;;5433029;26;20448;-74
2024/04/09 11:00:51;;;;;;;0.30;0.20;;;25.80;89.00;;;;;;5416819;26;20451;-74
2024/04/09 11:03:20;;;;;;;0.40;0.40;;;25.90;88.50;;;;;;5421901;26;20840;-74
2024/04/09 11:05:47;;;;;;;0.30;0.20;;;26.00;87.70;;;;;;5426358;26;20799;-75
2024/04/09 11:08:26;;;;;;;0.40;0.30;;;26.00;86.60;;;;;;5422868;26;20562;-75
2024/04/09 11:10:52;;;;;;;0.67;0.67;;;26.00;86.70;;;;;;5428873;26;20551;-75
2024/04/09 11:13:18;;;;;;;0.30;0.30;;;26.00;86.70;;;;;;5432452;26;20451;-75
2024/04/09 11:15:44;;;;;;;0.40;0.30;;;26.10;87.00;;;;;;5439474;26;20252;-74
2024/04/09 11:18:20;;;;;;;0.30;0.20;;;26.10;86.80;;;;;;5435830;26;20748;-74
2024/04/09 11:20:59;;;;;;;0.80;0.60;;;26.30;87.00;;;;;;5428865;26;20234;-74
2024/04/09 11:23:26;;;;;;;0.80;0.77;;;26.30;86.20;;;;;;5429553;26;20459;-74
2024/04/09 11:25:55;;;;;;;0.30;0.20;;;26.30;86.20;;;;;;5427685;26;20565;-74
2024/04/09 11:28:22;;;;;;;0.30;0.20;;;26.20;85.90;;;;;;5431690;26;21049;-74
2024/04/09 11:30:51;;;;;;;0.30;0.20;;;26.20;85.40;;;;;;5422586;26;21019;-74
2024/04/09 11:33:17;;;;;;;0.30;0.20;;;26.20;86.40;;;;;;5427381;26;20463;-75
2024/04/09 11:35:45;;;;;;;1.70;0.80;;;26.30;85.70;;;;;;5428120;26;20462;-75
2024/04/09 11:38:12;;;;;;;0.30;0.30;;;26.30;85.10;;;;;;5431169;26;20439;-74
2024/04/09 11:40:38;;;;;;;0.30;0.20;;;26.40;86.10;;;;;;5431049;26;20514;-74
2024/04/09 11:43:04;;;;;;;0.30;0.20;;;26.60;85.80;;;;;;5429078;26;20509;-74
2024/04/09 11:45:33;;;;;;;0.30;0.20;;;26.70;85.00;;;;;;5430962;26;20281;-74
2024/04/09 11:47:59;;;;;;;0.30;0.20;;;26.70;84.40;;;;;;5478050;26;20462;-75
2024/04/09 11:50:26;;;;;;;1.70;1.60;;;26.80;84.30;;;;;;5432269;26;20500;-75
2024/04/09 11:52:51;;;;;;;0.30;0.30;;;26.80;83.90;;;;;;5432271;26;20548;-75
2024/04/09 11:55:17;;;;;;;0.40;0.30;;;26.90;84.20;;;;;;5433432;26;20974;-75
2024/04/09 11:57:45;;;;;;;0.30;0.20;;;26.90;83.70;;;;;;5432692;26;20481;-75
2024/04/09 12:00:12;;;;;;;0.30;0.20;;;27.00;83.80;;;;;;5429782;26;20446;-74
2024/04/09 12:02:45;;;;;;;0.40;0.40;;;27.00;83.00;;;;;;5431991;26;20550;-74
2024/04/09 12:05:12;;;;;;;0.60;0.50;;;27.00;82.80;;;;;;5432262;26;20459;-75
2024/04/09 12:07:38;;;;;;;0.57;0.57;;;27.10;83.10;;;;;;5425584;26;21550;-75
2024/04/09 12:10:05;;;;;;;0.30;0.20;;;27.20;82.50;;;;;;5434452;26;20440;-74
2024/04/09 12:12:32;;;;;;;0.80;0.43;;;27.20;82.00;;;;;;5433355;26;20522;-75
2024/04/09 12:14:57;;;;;;;0.30;0.30;;;27.30;80.40;;;;;;5435271;26;20495;-75
2024/04/09 12:17:23;;;;;;;0.30;0.20;;;27.30;80.50;;;;;;5435163;26;20456;-75
2024/04/09 12:19:48;;;;;;;0.30;0.30;;;27.30;81.30;;;;;;5434123;26;20589;-75
2024/04/09 12:22:15;;;;;;;0.30;0.20;;;27.30;80.30;;;;;;5435002;26;20319;-74
2024/04/09 12:24:44;;;;;;;0.67;0.67;;;27.30;79.50;;;;;;5431579;26;20684;-75
2024/04/09 12:27:10;;;;;;;0.30;0.20;;;27.30;79.90;;;;;;5432066;26;20456;-76
2024/04/09 12:29:35;;;;;;;0.30;0.20;;;27.40;80.40;;;;;;5431838;26;20851;-75
2024/04/09 12:32:02;;;;;;;0.50;0.40;;;27.40;81.10;;;;;;5433773;26;20775;-76
2024/04/09 12:34:29;;;;;;;0.40;0.30;;;27.50;80.50;;;;;;5434796;26;20242;-76
2024/04/09 12:36:55;;;;;;;0.43;0.40;;;27.60;80.50;;;;;;5437630;26;20898;-76
2024/04/09 12:39:23;;;;;;;0.30;0.20;;;27.60;78.10;;;;;;5437544;26;20446;-76
2024/04/09 12:41:49;;;;;;;0.50;0.50;;;27.60;77.50;;;;;;5436521;26;20297;-75
2024/04/09 12:44:15;;;;;;;0.43;0.43;;;27.60;77.00;;;;;;5435302;26;20885;-74
2024/04/09 12:46:40;;;;;;;0.40;0.33;;;27.50;77.20;;;;;;5437326;26;20505;-75
2024/04/09 12:49:06;;;;;;;0.30;0.30;;;27.60;78.10;;;;;;5439042;26;20603;-75